createdAt,value
2019-03-01T00:02:20.399Z,0.00
2019-03-01T00:05:27.808Z,0.00
2019-03-01T00:08:35.471Z,0.00
2019-03-01T00:11:18.495Z,0.00
2019-03-01T00:14:44.276Z,0.00
2019-03-01T00:17:51.669Z,0.10
2019-03-01T00:20:50.671Z,0.00
2019-03-01T00:24:00.552Z,0.00
2019-03-01T00:26:58.546Z,0.00
2019-03-01T00:30:01.305Z,0.00
2019-03-01T00:33:17.440Z,0.00
2019-03-01T00:36:15.115Z,0.00
2019-03-01T00:39:22.300Z,0.07
2019-03-01T00:42:17.158Z,1.10
2019-03-01T00:44:48.212Z,0.73
2019-03-01T00:47:17.811Z,0.00
2019-03-01T00:49:47.180Z,2.53
2019-03-01T00:52:16.465Z,0.00
2019-03-01T00:54:45.804Z,0.37
2019-03-01T00:57:18.448Z,0.00
2019-03-01T00:59:47.774Z,0.00
2019-03-01T01:02:17.113Z,0.10
2019-03-01T01:04:46.636Z,0.00
2019-03-01T01:07:15.960Z,0.00
2019-03-01T01:09:45.310Z,0.00
2019-03-01T01:12:14.638Z,0.00
2019-03-01T01:14:43.939Z,0.20
2019-03-01T01:17:13.271Z,0.00
2019-03-01T01:19:42.594Z,0.00
2019-03-01T01:22:11.944Z,0.00
2019-03-01T01:24:41.284Z,0.00
2019-03-01T01:27:10.605Z,0.53
2019-03-01T01:29:40.669Z,0.00
2019-03-01T01:32:09.987Z,0.00
2019-03-01T01:34:39.319Z,0.00
2019-03-01T01:37:08.646Z,0.50
2019-03-01T01:39:37.962Z,0.00
2019-03-01T01:42:07.320Z,0.00
2019-03-01T01:44:36.625Z,0.53
2019-03-01T01:47:05.959Z,0.00
2019-03-01T01:49:35.255Z,0.30
2019-03-01T01:52:13.699Z,0.00
2019-03-01T01:54:42.988Z,0.00
2019-03-01T01:57:12.325Z,0.10
2019-03-01T01:59:41.662Z,0.00
2019-03-01T02:02:10.982Z,0.00
2019-03-01T02:04:40.507Z,0.00
2019-03-01T02:07:09.815Z,0.00
2019-03-01T02:09:39.371Z,0.20
2019-03-01T02:12:08.684Z,0.00
2019-03-01T02:14:38.002Z,0.00
2019-03-01T02:17:07.333Z,0.00
2019-03-01T02:19:36.665Z,0.00
2019-03-01T02:22:05.975Z,0.00
2019-03-01T02:24:35.338Z,0.00
2019-03-01T02:27:24.623Z,0.00
2019-03-01T02:29:54.068Z,0.03
2019-03-01T02:32:35.671Z,0.00
2019-03-01T02:35:05.294Z,28.33
2019-03-01T02:37:34.622Z,32.30
2019-03-01T02:40:05.375Z,28.60
2019-03-01T02:42:34.681Z,37.10
2019-03-01T02:45:04.201Z,29.30
2019-03-01T02:47:33.509Z,39.83
2019-03-01T02:50:02.847Z,26.60
2019-03-01T02:52:32.178Z,34.93
2019-03-01T02:55:01.485Z,42.93
2019-03-01T02:57:30.838Z,33.60
2019-03-01T03:00:00.277Z,27.83
2019-03-01T03:02:29.786Z,37.37
2019-03-01T03:04:59.116Z,39.10
2019-03-01T03:07:33.760Z,32.97
2019-03-01T03:10:03.105Z,32.10
2019-03-01T03:12:32.422Z,30.70
2019-03-01T03:15:01.772Z,28.80
2019-03-01T03:17:31.086Z,32.53
2019-03-01T03:20:00.467Z,29.23
2019-03-01T03:22:29.835Z,27.37
2019-03-01T03:24:59.169Z,23.10
2019-03-01T03:27:28.515Z,34.90
2019-03-01T03:29:57.829Z,34.57
2019-03-01T03:32:27.770Z,35.17
2019-03-01T03:34:57.139Z,30.03
2019-03-01T03:37:26.459Z,32.20
2019-03-01T03:39:55.800Z,29.80
2019-03-01T03:42:25.158Z,31.60
2019-03-01T03:44:54.469Z,44.80
2019-03-01T03:47:23.868Z,42.70
2019-03-01T03:49:53.195Z,37.17
2019-03-01T03:52:22.533Z,37.53
2019-03-01T03:54:51.885Z,35.70
2019-03-01T03:57:21.207Z,32.50
2019-03-01T03:59:50.548Z,38.87
2019-03-01T04:02:19.910Z,31.20
2019-03-01T04:04:49.264Z,38.67
2019-03-01T04:07:18.588Z,43.07
2019-03-01T04:09:47.984Z,45.10
2019-03-01T04:12:17.256Z,46.53
2019-03-01T04:14:46.592Z,32.00
2019-03-01T04:17:16.058Z,42.33
2019-03-01T04:19:45.390Z,47.17
2019-03-01T04:22:14.712Z,41.33
2019-03-01T04:24:44.056Z,39.97
2019-03-01T04:27:13.375Z,34.97
2019-03-01T04:29:42.789Z,44.57
2019-03-01T04:32:12.121Z,36.13
2019-03-01T04:34:41.470Z,59.67
2019-03-01T04:37:10.806Z,28.07
2019-03-01T04:39:40.142Z,40.93
2019-03-01T04:42:09.499Z,45.40
2019-03-01T04:44:38.836Z,34.67
2019-03-01T04:47:08.202Z,47.63
2019-03-01T04:49:37.508Z,39.93
2019-03-01T04:52:28.724Z,49.13
2019-03-01T04:54:58.073Z,55.33
2019-03-01T04:57:27.451Z,42.60
2019-03-01T04:59:56.757Z,47.60
2019-03-01T05:02:26.202Z,44.67
2019-03-01T05:04:55.523Z,46.70
2019-03-01T05:07:24.995Z,48.47
2019-03-01T05:09:55.638Z,42.27
2019-03-01T05:12:25.097Z,42.83
2019-03-01T05:14:54.433Z,41.87
2019-03-01T05:17:23.752Z,38.20
2019-03-01T05:19:53.092Z,31.37
2019-03-01T05:22:22.405Z,38.20
2019-03-01T05:24:51.742Z,50.10
2019-03-01T05:27:21.081Z,46.47
2019-03-01T05:29:50.413Z,36.60
2019-03-01T05:32:19.779Z,47.63
2019-03-01T05:34:49.105Z,39.93
2019-03-01T05:37:18.470Z,42.10
2019-03-01T05:39:47.830Z,48.17
2019-03-01T05:42:17.173Z,46.27
2019-03-01T05:44:46.489Z,45.67
2019-03-01T05:47:15.822Z,44.93
2019-03-01T05:49:45.155Z,50.37
2019-03-01T05:52:14.530Z,48.60
2019-03-01T05:54:43.860Z,46.10
2019-03-01T05:57:13.171Z,51.77
2019-03-01T05:59:42.506Z,52.60
2019-03-01T06:02:49.955Z,66.77
2019-03-01T06:05:28.944Z,58.97
2019-03-01T06:08:32.046Z,42.13
2019-03-01T06:11:19.531Z,48.60
2019-03-01T06:14:06.219Z,46.93
2019-03-01T06:17:09.271Z,44.00
2019-03-01T06:20:09.098Z,43.60
2019-03-01T06:23:19.496Z,34.63
2019-03-01T06:26:20.373Z,43.77
2019-03-01T06:29:32.133Z,60.53
2019-03-01T06:33:03.467Z,44.50
2019-03-01T06:35:57.507Z,50.50
2019-03-01T06:39:38.596Z,43.53
2019-03-01T06:42:42.356Z,50.47
2019-03-01T06:45:44.140Z,57.97
2019-03-01T06:48:20.633Z,56.20
2019-03-01T06:50:53.729Z,59.67
2019-03-01T06:53:23.036Z,68.60
2019-03-01T06:55:58.892Z,63.00
2019-03-01T06:58:40.031Z,71.17
2019-03-01T07:01:12.562Z,57.83
2019-03-01T07:03:41.908Z,74.13
2019-03-01T07:06:11.243Z,43.33
2019-03-01T07:08:40.558Z,58.40
2019-03-01T07:11:09.917Z,70.90
2019-03-01T07:13:39.234Z,49.80
2019-03-01T07:16:08.612Z,55.80
2019-03-01T07:18:37.933Z,56.27
2019-03-01T07:21:07.352Z,55.77
2019-03-01T07:23:37.213Z,60.40
2019-03-01T07:26:06.630Z,59.40
2019-03-01T07:28:35.975Z,58.53
2019-03-01T07:31:07.115Z,62.57
2019-03-01T07:33:36.559Z,72.03
2019-03-01T07:36:05.908Z,63.60
2019-03-01T07:38:35.245Z,69.90
2019-03-01T07:41:04.603Z,53.90
2019-03-01T07:43:33.927Z,57.63
2019-03-01T07:46:03.269Z,66.70
2019-03-01T07:48:32.618Z,82.23
2019-03-01T07:51:02.493Z,55.63
2019-03-01T07:53:31.880Z,62.47
2019-03-01T07:56:04.008Z,60.00
2019-03-01T07:58:32.285Z,68.63
2019-03-01T08:01:01.612Z,62.67
2019-03-01T08:03:31.027Z,53.13
2019-03-01T08:06:00.407Z,70.60
2019-03-01T08:08:29.840Z,57.57
2019-03-01T08:11:00.170Z,62.07
2019-03-01T08:13:29.565Z,66.83
2019-03-01T08:15:58.945Z,57.37
2019-03-01T08:18:28.310Z,79.93
2019-03-01T08:20:57.773Z,72.83
2019-03-01T08:23:27.214Z,43.57
2019-03-01T08:25:58.745Z,61.90
2019-03-01T08:28:27.818Z,62.23
2019-03-01T08:30:57.168Z,68.83
2019-03-01T08:33:26.541Z,71.40
2019-03-01T08:35:55.893Z,78.80
2019-03-01T08:38:25.563Z,72.07
2019-03-01T08:40:56.320Z,71.53
2019-03-01T08:43:25.663Z,56.63
2019-03-01T08:45:55.025Z,63.93
2019-03-01T08:48:24.352Z,54.43
2019-03-01T08:50:53.709Z,55.67
2019-03-01T08:53:23.060Z,62.50
2019-03-01T08:55:52.403Z,70.30
2019-03-01T08:58:21.760Z,55.33
2019-03-01T09:00:59.357Z,53.40
2019-03-01T09:03:28.696Z,55.70
2019-03-01T09:05:58.036Z,50.33
2019-03-01T09:08:27.391Z,62.67
2019-03-01T09:10:56.719Z,48.03
2019-03-01T09:13:26.030Z,60.27
2019-03-01T09:15:55.367Z,56.37
2019-03-01T09:18:24.706Z,64.83
2019-03-01T09:20:54.056Z,62.50
2019-03-01T09:23:27.234Z,54.70
2019-03-01T09:25:54.500Z,61.17
2019-03-01T09:28:23.839Z,47.87
2019-03-01T09:30:53.346Z,51.07
2019-03-01T09:33:23.094Z,49.17
2019-03-01T09:36:02.360Z,38.97
2019-03-01T09:38:31.696Z,54.00
2019-03-01T09:41:04.075Z,49.00
2019-03-01T09:43:32.149Z,58.40
2019-03-01T09:46:01.509Z,51.13
2019-03-01T09:48:30.898Z,44.47
2019-03-01T09:51:00.224Z,34.33
2019-03-01T09:53:30.540Z,43.43
2019-03-01T09:56:00.977Z,44.60
2019-03-01T09:58:32.371Z,45.60
2019-03-01T10:01:08.586Z,27.97
2019-03-01T10:03:38.119Z,43.13
2019-03-01T10:06:07.581Z,39.83
2019-03-01T10:08:37.286Z,38.07
2019-03-01T10:11:06.614Z,41.53
2019-03-01T10:16:05.455Z,45.03
2019-03-01T10:18:35.370Z,41.10
2019-03-01T10:21:04.866Z,45.03
2019-03-01T10:23:34.187Z,48.20
2019-03-01T10:26:03.529Z,44.93
2019-03-01T10:28:33.008Z,44.20
2019-03-01T10:31:02.485Z,34.37
2019-03-01T10:33:31.827Z,30.73
2019-03-01T10:36:01.183Z,49.83
2019-03-01T10:38:30.576Z,29.20
2019-03-01T10:40:59.912Z,32.90
2019-03-01T10:43:29.270Z,36.97
2019-03-01T10:45:58.639Z,33.10
2019-03-01T10:48:27.997Z,37.53
2019-03-01T10:50:57.342Z,38.03
2019-03-01T10:53:26.704Z,31.90
2019-03-01T10:55:56.063Z,38.07
2019-03-01T10:58:25.409Z,26.87
2019-03-01T11:00:54.740Z,28.43
2019-03-01T11:03:24.108Z,34.47
2019-03-01T11:05:53.960Z,25.30
2019-03-01T11:08:23.320Z,38.27
2019-03-01T11:10:52.683Z,23.33
2019-03-01T11:13:22.033Z,23.97
2019-03-01T11:15:51.364Z,33.20
2019-03-01T11:18:20.728Z,24.73
2019-03-01T11:20:50.164Z,23.13
2019-03-01T11:23:19.486Z,23.27
2019-03-01T11:25:48.840Z,21.43
2019-03-01T11:28:18.214Z,31.13
2019-03-01T11:30:47.552Z,36.13
2019-03-01T11:33:16.933Z,34.97
2019-03-01T11:35:46.304Z,30.60
2019-03-01T11:38:15.708Z,39.17
2019-03-01T11:40:45.166Z,32.23
2019-03-01T11:43:14.527Z,31.57
2019-03-01T11:45:43.879Z,36.53
2019-03-01T11:48:13.344Z,31.67
2019-03-01T11:50:42.706Z,42.57
2019-03-01T11:53:12.043Z,23.97
2019-03-01T11:55:41.375Z,30.23
2019-03-01T11:58:10.743Z,25.80
2019-03-01T12:00:40.074Z,27.83
2019-03-01T12:03:09.437Z,36.60
2019-03-01T12:05:38.794Z,45.00
2019-03-01T12:08:08.129Z,40.33
2019-03-01T12:10:37.501Z,29.77
2019-03-01T12:13:06.823Z,27.80
2019-03-01T12:15:36.177Z,25.13
2019-03-01T12:18:05.551Z,36.60
2019-03-01T12:20:34.902Z,29.73
2019-03-01T12:23:04.245Z,31.63
2019-03-01T12:25:33.592Z,37.90
2019-03-01T12:28:02.935Z,28.17
2019-03-01T12:30:32.312Z,30.87
2019-03-01T12:33:01.646Z,30.60
2019-03-01T12:35:31.006Z,24.27
2019-03-01T12:38:00.404Z,30.30
2019-03-01T12:40:29.884Z,26.27
2019-03-01T12:42:59.221Z,25.40
2019-03-01T12:45:28.593Z,32.87
2019-03-01T12:47:57.945Z,25.83
2019-03-01T12:50:27.335Z,35.90
2019-03-01T12:52:56.674Z,31.37
2019-03-01T12:55:26.039Z,38.97
2019-03-01T12:57:55.405Z,37.67
2019-03-01T13:00:27.003Z,29.37
2019-03-01T13:02:56.338Z,24.80
2019-03-01T13:05:29.125Z,29.17
2019-03-01T13:07:56.767Z,36.90
2019-03-01T13:10:27.172Z,26.17
2019-03-01T13:12:58.784Z,29.83
2019-03-01T13:15:27.547Z,29.10
2019-03-01T13:17:56.879Z,27.83
2019-03-01T13:20:26.230Z,30.33
2019-03-01T13:22:55.576Z,27.63
2019-03-01T13:25:25.871Z,23.67
2019-03-01T13:27:55.999Z,30.93
2019-03-01T13:30:25.360Z,36.30
2019-03-01T13:32:55.124Z,31.23
2019-03-01T13:35:26.151Z,25.57
2019-03-01T13:37:56.842Z,29.23
2019-03-01T13:40:26.195Z,20.37
2019-03-01T13:42:55.568Z,30.60
2019-03-01T13:45:24.965Z,27.87
2019-03-01T13:47:54.345Z,34.17
2019-03-01T13:50:23.778Z,28.17
2019-03-01T13:52:53.134Z,28.17
2019-03-01T13:55:23.716Z,36.53
2019-03-01T13:57:53.302Z,24.37
2019-03-01T14:00:23.063Z,33.63
2019-03-01T14:02:52.503Z,29.67
2019-03-01T14:05:21.868Z,24.10
2019-03-01T14:07:55.341Z,27.17
2019-03-01T14:10:22.325Z,32.53
2019-03-01T14:12:51.701Z,37.90
2019-03-01T14:15:20.992Z,27.97
2019-03-01T14:17:50.345Z,37.13
2019-03-01T14:20:21.126Z,29.53
2019-03-01T14:22:50.642Z,29.40
2019-03-01T14:25:20.051Z,32.93
2019-03-01T14:27:49.422Z,33.47
2019-03-01T14:30:20.073Z,32.03
2019-03-01T14:32:49.537Z,24.57
2019-03-01T14:35:20.539Z,22.47
2019-03-01T14:37:54.184Z,23.93
2019-03-01T14:40:22.499Z,33.20
2019-03-01T14:42:52.895Z,22.17
2019-03-01T14:45:25.495Z,27.57
2019-03-01T14:47:54.717Z,19.40
2019-03-01T14:50:24.618Z,18.23
2019-03-01T14:52:58.377Z,23.30
2019-03-01T14:55:37.322Z,22.63
2019-03-01T14:58:23.405Z,19.40
2019-03-01T15:01:16.998Z,27.40
2019-03-01T15:03:49.815Z,25.93
2019-03-01T15:06:19.242Z,21.23
2019-03-01T15:08:48.539Z,19.37
2019-03-01T15:11:19.802Z,18.37
2019-03-01T15:13:50.340Z,20.03
2019-03-01T15:16:19.818Z,24.67
2019-03-01T15:18:49.159Z,23.57
2019-03-01T15:21:18.473Z,22.80
2019-03-01T15:23:47.852Z,22.43
2019-03-01T15:26:17.305Z,23.73
2019-03-01T15:28:53.942Z,20.57
2019-03-01T15:31:19.656Z,24.37
2019-03-01T15:33:49.136Z,23.00
2019-03-01T15:36:19.126Z,23.90
2019-03-01T15:38:48.629Z,21.73
2019-03-01T15:41:17.981Z,20.93
2019-03-01T15:43:47.342Z,20.43
2019-03-01T15:46:17.958Z,22.00
2019-03-01T15:48:48.047Z,22.40
2019-03-01T15:51:17.450Z,18.37
2019-03-01T15:53:46.760Z,21.87
2019-03-01T15:56:16.138Z,24.30
2019-03-01T15:58:46.534Z,17.77
2019-03-01T16:01:16.251Z,26.23
2019-03-01T16:03:45.681Z,24.23
2019-03-01T16:06:20.071Z,20.27
2019-03-01T16:08:47.953Z,21.43
2019-03-01T16:11:18.296Z,19.87
2019-03-01T16:13:49.399Z,26.77
2019-03-01T16:16:19.067Z,20.00
2019-03-01T16:18:48.500Z,18.00
2019-03-01T16:21:18.036Z,22.80
2019-03-01T16:23:47.403Z,24.90
2019-03-01T16:26:16.989Z,18.60
2019-03-01T16:28:46.413Z,20.90
2019-03-01T16:31:15.981Z,21.70
2019-03-01T16:33:45.545Z,19.40
2019-03-01T16:36:26.519Z,19.33
2019-03-01T16:38:55.250Z,18.37
2019-03-01T16:41:24.694Z,20.27
2019-03-01T16:43:54.021Z,14.53
2019-03-01T16:46:28.541Z,20.50
2019-03-01T16:49:02.417Z,18.73
2019-03-01T16:51:31.769Z,19.43
2019-03-01T16:54:01.193Z,20.97
2019-03-01T16:56:30.645Z,28.10
2019-03-01T16:59:00.299Z,17.63
2019-03-01T17:01:31.177Z,24.03
2019-03-01T17:04:00.526Z,25.47
2019-03-01T17:06:29.934Z,16.13
2019-03-01T17:08:59.276Z,21.87
2019-03-01T17:11:28.626Z,23.47
2019-03-01T17:13:59.563Z,19.70
2019-03-01T17:16:30.130Z,24.27
2019-03-01T17:18:59.476Z,21.70
2019-03-01T17:21:28.833Z,21.60
2019-03-01T17:23:58.158Z,20.27
2019-03-01T17:26:29.771Z,18.57
2019-03-01T17:28:59.783Z,19.10
2019-03-01T17:31:30.751Z,15.77
2019-03-01T17:34:00.199Z,18.30
2019-03-01T17:36:29.523Z,15.40
2019-03-01T17:38:59.607Z,16.03
2019-03-01T17:41:28.952Z,19.60
2019-03-01T17:43:58.411Z,19.77
2019-03-01T17:46:29.786Z,16.97
2019-03-01T17:48:59.180Z,18.07
2019-03-01T17:51:28.951Z,14.67
2019-03-01T17:53:58.361Z,16.03
2019-03-01T17:56:27.701Z,15.77
2019-03-01T17:58:57.056Z,17.77
2019-03-01T18:01:28.199Z,17.07
2019-03-01T18:03:57.917Z,18.43
2019-03-01T18:06:28.727Z,17.30
2019-03-01T18:08:58.497Z,17.50
2019-03-01T18:11:27.850Z,17.83
2019-03-01T18:14:00.716Z,18.30
2019-03-01T18:16:28.270Z,18.50
2019-03-01T18:18:57.701Z,17.40
2019-03-01T18:21:27.161Z,17.37
2019-03-01T18:23:56.511Z,19.03
2019-03-01T18:26:25.967Z,31.33
2019-03-01T18:28:55.506Z,21.87
2019-03-01T18:31:28.305Z,18.77
2019-03-01T18:33:57.314Z,19.83
2019-03-01T18:36:28.151Z,29.43
2019-03-01T18:39:00.106Z,22.53
2019-03-01T18:41:29.670Z,16.67
2019-03-01T18:43:58.992Z,35.03
2019-03-01T18:46:28.517Z,21.20
2019-03-01T18:48:57.879Z,22.73
2019-03-01T18:51:27.562Z,24.33
2019-03-01T18:53:57.168Z,22.13
2019-03-01T18:56:28.669Z,23.50
2019-03-01T18:58:58.140Z,15.13
2019-03-01T19:01:27.497Z,20.43
2019-03-01T19:03:58.935Z,23.17
2019-03-01T19:06:29.286Z,17.87
2019-03-01T19:08:58.739Z,19.83
2019-03-01T19:11:28.093Z,18.63
2019-03-01T19:13:58.540Z,19.50
2019-03-01T19:16:29.910Z,15.00
2019-03-01T19:18:59.529Z,14.50
2019-03-01T19:21:28.930Z,17.47
2019-03-01T19:23:58.383Z,19.17
2019-03-01T19:26:27.725Z,21.13
2019-03-01T19:28:59.008Z,14.33
2019-03-01T19:31:28.184Z,18.63
2019-03-01T19:33:57.522Z,18.30
2019-03-01T19:36:26.885Z,12.30
2019-03-01T19:38:56.789Z,14.63
2019-03-01T19:41:28.297Z,13.77
2019-03-01T19:43:57.990Z,13.37
2019-03-01T19:46:27.369Z,10.43
2019-03-01T19:48:57.755Z,13.80
2019-03-01T19:51:27.116Z,15.30
2019-03-01T19:53:57.390Z,20.93
2019-03-01T19:56:27.519Z,10.93
2019-03-01T19:58:56.872Z,12.80
2019-03-01T20:01:26.220Z,9.50
2019-03-01T20:03:57.088Z,12.60
2019-03-01T20:06:26.769Z,14.70
2019-03-01T20:08:56.090Z,19.90
2019-03-01T20:11:26.728Z,14.87
2019-03-01T20:13:56.611Z,17.90
2019-03-01T20:16:26.024Z,14.47
2019-03-01T20:18:55.368Z,13.43
2019-03-01T20:21:24.686Z,18.83
2019-03-01T20:23:55.340Z,14.17
2019-03-01T20:26:26.723Z,15.80
2019-03-01T20:28:55.759Z,11.27
2019-03-01T20:31:26.962Z,17.93
2019-03-01T20:33:58.575Z,16.67
2019-03-01T20:36:27.399Z,12.87
2019-03-01T20:38:56.745Z,12.60
2019-03-01T20:41:26.152Z,12.10
2019-03-01T20:43:55.563Z,10.70
2019-03-01T20:46:24.946Z,12.13
2019-03-01T20:48:54.266Z,11.20
2019-03-01T20:51:26.985Z,12.97
2019-03-01T20:53:56.466Z,12.10
2019-03-01T20:56:25.813Z,10.80
2019-03-01T20:58:55.147Z,15.67
2019-03-01T21:01:24.606Z,19.80
2019-03-01T21:03:53.934Z,16.83
2019-03-01T21:06:23.390Z,15.33
2019-03-01T21:08:52.703Z,17.97
2019-03-01T21:11:25.482Z,14.90
2019-03-01T21:13:55.575Z,14.27
2019-03-01T21:16:24.940Z,17.87
2019-03-01T21:18:54.380Z,15.20
2019-03-01T21:21:25.523Z,12.93
2019-03-01T21:23:54.834Z,13.17
2019-03-01T21:26:24.276Z,14.27
2019-03-01T21:28:53.646Z,18.17
2019-03-01T21:31:22.963Z,16.20
2019-03-01T21:33:52.320Z,13.00
2019-03-01T21:36:22.891Z,14.57
2019-03-01T21:38:52.710Z,11.07
2019-03-01T21:41:22.110Z,12.47
2019-03-01T21:43:51.441Z,15.13
2019-03-01T21:46:20.792Z,14.20
2019-03-01T21:48:50.114Z,13.60
2019-03-01T21:51:19.969Z,12.47
2019-03-01T21:53:49.372Z,13.27
2019-03-01T21:56:20.529Z,13.43
2019-03-01T21:58:49.857Z,9.63
2019-03-01T22:01:19.179Z,12.00
2019-03-01T22:03:48.520Z,12.27
2019-03-01T22:06:20.632Z,17.93
2019-03-01T22:08:49.755Z,12.13
2019-03-01T22:11:20.855Z,9.93
2019-03-01T22:13:50.395Z,10.07
2019-03-01T22:16:19.722Z,11.13
2019-03-01T22:18:49.065Z,9.77
2019-03-01T22:21:22.562Z,8.33
2019-03-01T22:23:51.526Z,8.63
2019-03-01T22:26:20.628Z,8.33
2019-03-01T22:28:49.988Z,8.17
2019-03-01T22:31:19.304Z,7.87
2019-03-01T22:33:48.725Z,8.53
2019-03-01T22:36:18.986Z,8.03
2019-03-01T22:38:48.364Z,8.33
2019-03-01T22:41:17.729Z,6.53
2019-03-01T22:43:47.100Z,9.80
2019-03-01T22:46:16.447Z,8.80
2019-03-01T22:48:49.679Z,7.40
2019-03-01T22:51:18.078Z,8.50
2019-03-01T22:53:48.661Z,8.13
2019-03-01T22:56:18.019Z,8.90
2019-03-01T22:58:53.690Z,7.67
2019-03-01T23:01:44.062Z,7.60
2019-03-01T23:04:13.834Z,9.10
2019-03-01T23:06:43.165Z,10.50
2019-03-01T23:09:16.665Z,7.13
2019-03-01T23:11:45.987Z,12.13
2019-03-01T23:14:18.039Z,11.83
2019-03-01T23:16:50.612Z,8.00
2019-03-01T23:19:18.488Z,7.37
2019-03-01T23:21:48.902Z,7.17
2019-03-01T23:24:18.342Z,7.17
2019-03-01T23:26:47.653Z,7.37
2019-03-01T23:29:18.895Z,5.93
2019-03-01T23:31:48.044Z,7.07
2019-03-01T23:34:17.381Z,5.80
2019-03-01T23:36:46.693Z,7.50
2019-03-01T23:39:17.190Z,5.87
2019-03-01T23:41:47.256Z,6.57
2019-03-01T23:44:16.680Z,6.53
2019-03-01T23:46:46.100Z,7.43
2019-03-01T23:49:15.416Z,9.77
2019-03-01T23:51:45.333Z,6.93
2019-03-01T23:54:28.089Z,6.30
2019-03-01T23:56:57.439Z,10.03
2019-03-01T23:59:27.546Z,9.30
